createdAt,value
2022-12-31T00:00:07.705Z,0.70
2022-12-31T00:05:11.250Z,0.50
2022-12-31T00:10:13.773Z,0.73
2022-12-31T00:15:16.637Z,0.60
2022-12-31T00:20:19.353Z,0.50
2022-12-31T00:25:21.879Z,0.70
2022-12-31T00:30:25.079Z,0.67
2022-12-31T00:35:31.059Z,0.90
2022-12-31T00:40:33.526Z,0.83
2022-12-31T00:45:35.998Z,0.60
2022-12-31T00:50:38.630Z,0.60
2022-12-31T00:55:41.116Z,0.60
2022-12-31T01:00:44.494Z,0.50
2022-12-31T01:05:47.101Z,0.63
2022-12-31T01:11:09.574Z,0.80
2022-12-31T01:16:13.800Z,0.70
2022-12-31T01:21:16.557Z,0.60
2022-12-31T01:26:20.089Z,0.70
2022-12-31T01:31:24.398Z,0.70
2022-12-31T01:36:32.417Z,0.63
2022-12-31T01:41:39.499Z,0.60
2022-12-31T01:46:48.408Z,0.63
2022-12-31T01:52:08.936Z,0.50
2022-12-31T01:57:12.321Z,0.50
2022-12-31T02:02:16.556Z,0.60
2022-12-31T02:07:19.205Z,0.70
2022-12-31T02:12:21.998Z,0.60
2022-12-31T02:17:39.470Z,2.40
2022-12-31T02:23:14.154Z,0.60
2022-12-31T02:28:40.840Z,0.57
2022-12-31T02:33:50.893Z,0.60
2022-12-31T02:38:55.258Z,0.60
2022-12-31T02:43:58.290Z,0.97
2022-12-31T02:49:24.197Z,0.63
2022-12-31T02:54:37.543Z,0.60
2022-12-31T03:00:02.578Z,0.60
2022-12-31T03:05:05.895Z,0.60
2022-12-31T03:10:09.347Z,0.63
2022-12-31T03:15:21.920Z,0.80
2022-12-31T03:20:50.884Z,0.70
2022-12-31T03:25:55.362Z,0.90
2022-12-31T03:31:03.050Z,0.60
2022-12-31T03:36:12.147Z,0.83
2022-12-31T03:41:14.815Z,0.90
2022-12-31T03:46:17.256Z,1.00
2022-12-31T03:51:19.722Z,0.67
2022-12-31T03:56:22.287Z,0.50
2022-12-31T04:01:25.861Z,0.80
2022-12-31T04:06:28.583Z,0.70
2022-12-31T04:11:31.036Z,0.97
2022-12-31T04:16:33.693Z,0.50
2022-12-31T04:21:36.235Z,0.50
2022-12-31T04:26:38.818Z,0.67
2022-12-31T04:31:41.429Z,0.50
2022-12-31T04:36:44.141Z,0.67
2022-12-31T04:41:46.623Z,0.80
2022-12-31T04:46:49.117Z,0.60
2022-12-31T04:51:51.589Z,1.00
2022-12-31T04:56:54.538Z,0.77
2022-12-31T05:01:57.675Z,0.60
2022-12-31T05:07:01.400Z,0.53
2022-12-31T05:12:04.322Z,0.57
2022-12-31T05:17:06.747Z,0.50
2022-12-31T05:22:27.832Z,0.57
2022-12-31T05:27:31.392Z,0.60
2022-12-31T05:32:34.985Z,0.60
2022-12-31T05:37:37.658Z,0.47
2022-12-31T05:42:40.623Z,0.50
2022-12-31T05:47:43.593Z,0.77
2022-12-31T05:52:47.802Z,0.70
2022-12-31T05:57:50.474Z,0.60
2022-12-31T06:02:53.132Z,0.57
2022-12-31T06:07:56.147Z,0.50
2022-12-31T06:12:58.900Z,0.60
2022-12-31T06:18:01.381Z,0.60
2022-12-31T06:23:04.241Z,0.67
2022-12-31T06:28:06.907Z,0.57
2022-12-31T06:33:09.491Z,0.60
2022-12-31T06:38:11.954Z,0.60
2022-12-31T06:43:14.609Z,0.60
2022-12-31T06:48:17.759Z,0.63
2022-12-31T06:53:20.273Z,0.60
2022-12-31T06:58:23.038Z,0.70
2022-12-31T07:03:36.011Z,0.70
2022-12-31T07:08:55.868Z,0.50
2022-12-31T07:14:10.794Z,0.63
2022-12-31T07:19:28.451Z,0.87
2022-12-31T07:24:31.205Z,0.77
2022-12-31T07:30:09.695Z,0.67
2022-12-31T07:35:20.946Z,0.63
2022-12-31T07:40:48.485Z,0.67
2022-12-31T07:46:05.626Z,1.03
2022-12-31T07:51:11.824Z,0.83
2022-12-31T07:56:15.362Z,0.70
2022-12-31T08:01:44.122Z,0.47
2022-12-31T08:06:51.585Z,0.63
2022-12-31T08:11:58.934Z,0.60
2022-12-31T08:17:01.659Z,0.70
2022-12-31T08:22:28.587Z,0.90
2022-12-31T08:27:47.715Z,1.60
2022-12-31T08:33:04.327Z,0.80
2022-12-31T08:38:44.742Z,0.50
2022-12-31T08:44:05.057Z,0.70
2022-12-31T08:49:10.170Z,0.80
2022-12-31T08:54:13.350Z,0.70
2022-12-31T08:59:29.037Z,0.70
2022-12-31T09:05:09.043Z,0.80
2022-12-31T09:10:36.032Z,2.13
2022-12-31T09:15:48.471Z,1.60
2022-12-31T09:20:51.299Z,1.30
2022-12-31T09:26:19.542Z,0.80
2022-12-31T09:31:47.111Z,0.70
2022-12-31T09:36:52.873Z,0.67
2022-12-31T09:42:25.663Z,0.60
2022-12-31T09:47:37.159Z,0.60
2022-12-31T09:53:00.650Z,0.57
2022-12-31T09:58:25.156Z,0.60
2022-12-31T10:03:55.410Z,0.80
2022-12-31T10:09:28.702Z,0.70
2022-12-31T10:15:07.103Z,0.70
2022-12-31T10:20:47.031Z,0.80
2022-12-31T10:26:17.571Z,0.63
2022-12-31T10:31:37.540Z,0.60
2022-12-31T10:37:03.985Z,0.73
2022-12-31T10:42:25.800Z,0.80
2022-12-31T10:48:16.243Z,0.60
2022-12-31T10:53:54.446Z,0.73
2022-12-31T10:59:14.995Z,0.63
2022-12-31T11:04:44.940Z,0.63
2022-12-31T11:10:21.347Z,0.90
2022-12-31T11:15:48.291Z,0.70
2022-12-31T11:21:22.810Z,0.87
2022-12-31T11:26:40.477Z,0.60
2022-12-31T11:32:02.610Z,0.60
2022-12-31T11:37:25.319Z,0.80
2022-12-31T11:42:50.789Z,0.63
2022-12-31T11:48:30.616Z,0.67
2022-12-31T11:53:53.803Z,0.57
2022-12-31T11:58:57.412Z,0.60
2022-12-31T12:04:01.069Z,0.70
2022-12-31T12:09:11.983Z,0.40
2022-12-31T12:14:39.613Z,0.70
2022-12-31T12:19:45.549Z,0.90
2022-12-31T12:25:03.724Z,0.77
2022-12-31T12:30:27.392Z,0.70
2022-12-31T12:35:33.725Z,0.93
2022-12-31T12:40:37.503Z,0.70
2022-12-31T12:45:51.453Z,0.80
2022-12-31T12:50:55.114Z,0.80
2022-12-31T12:56:19.682Z,0.70
2022-12-31T13:01:42.991Z,0.63
2022-12-31T13:06:58.877Z,0.90
2022-12-31T13:13:13.653Z,0.60
2022-12-31T13:18:17.031Z,0.90
2022-12-31T13:23:58.875Z,0.90
2022-12-31T13:29:04.241Z,0.50
2022-12-31T13:34:31.843Z,0.50
2022-12-31T13:39:41.992Z,0.67
2022-12-31T13:45:09.244Z,0.50
2022-12-31T13:50:36.529Z,0.50
2022-12-31T13:56:16.905Z,2.30
2022-12-31T14:01:33.648Z,0.80
2022-12-31T14:07:02.823Z,0.70
2022-12-31T14:12:32.665Z,0.70
2022-12-31T14:17:53.870Z,0.90
2022-12-31T14:23:09.759Z,0.80
2022-12-31T14:28:27.306Z,0.83
2022-12-31T14:34:00.271Z,0.70
2022-12-31T14:39:38.990Z,0.80
2022-12-31T14:45:06.780Z,0.70
2022-12-31T14:50:14.213Z,0.70
2022-12-31T14:55:35.479Z,0.90
2022-12-31T15:00:40.317Z,0.70
2022-12-31T15:06:17.751Z,1.00
2022-12-31T15:11:43.008Z,1.10
2022-12-31T15:17:06.668Z,1.23
2022-12-31T15:22:33.214Z,0.97
2022-12-31T15:27:38.535Z,1.10
2022-12-31T15:32:46.188Z,1.10
2022-12-31T15:38:11.558Z,0.90
2022-12-31T15:43:28.234Z,0.90
2022-12-31T15:48:52.117Z,1.27
2022-12-31T15:53:57.590Z,1.10
2022-12-31T15:59:03.954Z,0.97
2022-12-31T16:04:20.025Z,0.90
2022-12-31T16:09:26.665Z,1.67
2022-12-31T16:14:40.826Z,1.17
2022-12-31T16:19:46.366Z,1.10
2022-12-31T16:30:27.660Z,2.23
2022-12-31T16:35:36.406Z,4.63
2022-12-31T16:40:40.590Z,3.70
2022-12-31T16:45:43.992Z,4.53
2022-12-31T16:50:51.699Z,4.10
2022-12-31T16:55:57.302Z,86.23
2022-12-31T17:01:12.248Z,36.93
2022-12-31T17:06:20.099Z,31.50
2022-12-31T17:11:33.163Z,31.80
2022-12-31T17:16:39.335Z,9.83
2022-12-31T17:21:48.635Z,17.97
2022-12-31T17:26:52.472Z,17.67
2022-12-31T17:32:08.018Z,21.23
2022-12-31T17:37:18.191Z,24.23
2022-12-31T17:42:37.547Z,51.07
2022-12-31T17:47:45.632Z,30.60
2022-12-31T17:52:48.728Z,22.83
2022-12-31T17:57:57.666Z,21.90
2022-12-31T18:03:00.832Z,17.57
2022-12-31T18:08:03.531Z,4.40
2022-12-31T18:13:12.623Z,3.87
2022-12-31T18:18:29.751Z,2.90
2022-12-31T18:29:02.479Z,2.83
2022-12-31T18:34:05.077Z,2.60
2022-12-31T18:39:08.545Z,1.93
2022-12-31T18:44:14.357Z,2.50
2022-12-31T18:49:17.627Z,4.47
2022-12-31T18:54:21.143Z,3.03
2022-12-31T18:59:28.351Z,2.70
2022-12-31T19:04:35.024Z,1.90
2022-12-31T19:09:49.098Z,1.83
2022-12-31T19:14:56.015Z,2.30
2022-12-31T19:20:04.960Z,2.23
2022-12-31T19:25:38.265Z,2.70
2022-12-31T19:30:42.467Z,2.80
2022-12-31T19:35:47.148Z,2.00
2022-12-31T19:40:52.630Z,2.60
2022-12-31T19:45:58.762Z,2.40
2022-12-31T19:51:02.253Z,3.50
2022-12-31T19:56:06.406Z,3.67
2022-12-31T20:01:20.545Z,2.47
2022-12-31T20:06:25.004Z,2.53
2022-12-31T20:11:32.117Z,2.80
2022-12-31T20:16:36.685Z,3.10
2022-12-31T20:21:42.336Z,2.53
2022-12-31T20:26:46.691Z,2.50
2022-12-31T20:31:51.312Z,2.70
2022-12-31T20:36:56.171Z,2.70
2022-12-31T20:42:05.878Z,2.87
2022-12-31T20:47:10.121Z,2.87
2022-12-31T20:52:15.274Z,3.27
2022-12-31T20:57:28.848Z,3.30
2022-12-31T21:02:42.563Z,3.40
2022-12-31T21:07:47.133Z,3.57
2022-12-31T21:12:53.979Z,3.43
2022-12-31T21:18:01.628Z,4.83
2022-12-31T21:23:06.800Z,4.60
2022-12-31T21:28:10.984Z,5.47
2022-12-31T21:33:15.253Z,5.77
2022-12-31T21:38:19.353Z,5.90
2022-12-31T21:43:24.593Z,5.67
2022-12-31T21:48:29.788Z,4.90
2022-12-31T21:53:37.150Z,3.50
2022-12-31T21:58:44.456Z,3.57
2022-12-31T22:03:48.500Z,4.27
2022-12-31T22:08:57.226Z,4.47
2022-12-31T22:14:01.538Z,4.37
2022-12-31T22:19:05.533Z,4.43
2022-12-31T22:24:12.210Z,4.53
2022-12-31T22:29:16.659Z,4.43
2022-12-31T22:34:20.723Z,4.73
2022-12-31T22:39:44.472Z,5.60
2022-12-31T22:44:49.384Z,6.10
2022-12-31T22:49:53.763Z,5.40
2022-12-31T22:55:00.779Z,5.73
2022-12-31T23:00:12.281Z,7.83
2022-12-31T23:05:21.168Z,33.37
2022-12-31T23:10:43.814Z,21.53
2022-12-31T23:16:06.382Z,25.07
2022-12-31T23:21:31.364Z,27.33
2022-12-31T23:31:55.436Z,29.17
2022-12-31T23:36:57.896Z,25.00
2022-12-31T23:42:01.213Z,20.23
2022-12-31T23:47:03.847Z,21.30
2022-12-31T23:52:06.283Z,17.67
2022-12-31T23:57:08.895Z,16.70
